createdAt,value
2023-12-01T00:00:19.416Z,92.94
2023-12-01T00:02:42.710Z,93.06
2023-12-01T00:05:06.000Z,92.89
2023-12-01T00:07:28.818Z,92.83
2023-12-01T00:09:53.393Z,92.94
2023-12-01T00:12:18.716Z,93.12
2023-12-01T00:14:42.461Z,93.30
2023-12-01T00:17:05.372Z,93.21
2023-12-01T00:19:28.306Z,93.20
2023-12-01T00:21:51.123Z,93.34
2023-12-01T00:24:14.954Z,93.08
2023-12-01T00:26:38.642Z,92.62
2023-12-01T00:29:01.463Z,92.22
2023-12-01T00:31:24.238Z,92.23
2023-12-01T00:33:47.235Z,92.01
2023-12-01T00:36:17.239Z,92.04
2023-12-01T00:38:40.478Z,91.60
2023-12-01T00:41:03.562Z,91.83
2023-12-01T00:43:27.577Z,92.17
2023-12-01T00:45:50.386Z,91.58
2023-12-01T00:48:13.928Z,91.80
2023-12-01T00:50:40.892Z,91.74
2023-12-01T00:53:03.728Z,91.46
2023-12-01T00:55:26.686Z,91.32
2023-12-01T00:57:54.860Z,91.54
2023-12-01T01:00:38.717Z,91.61
2023-12-01T01:03:01.585Z,92.19
2023-12-01T01:05:24.394Z,92.12
2023-12-01T01:07:47.223Z,92.11
2023-12-01T01:10:10.331Z,91.99
2023-12-01T01:12:33.092Z,91.79
2023-12-01T01:14:55.928Z,92.01
2023-12-01T01:17:18.708Z,92.20
2023-12-01T01:19:41.390Z,92.04
2023-12-01T01:22:04.527Z,91.80
2023-12-01T01:24:27.613Z,91.85
2023-12-01T01:26:50.377Z,91.61
2023-12-01T01:29:13.198Z,91.71
2023-12-01T01:31:35.965Z,91.72
2023-12-01T01:33:58.845Z,91.69
2023-12-01T01:36:22.368Z,91.44
2023-12-01T01:38:45.690Z,91.33
2023-12-01T01:41:08.693Z,91.12
2023-12-01T01:43:32.537Z,91.14
2023-12-01T01:46:04.021Z,91.16
2023-12-01T01:48:27.217Z,90.82
2023-12-01T01:50:49.988Z,90.89
2023-12-01T01:53:14.025Z,90.99
2023-12-01T01:55:36.755Z,90.79
2023-12-01T01:57:59.774Z,90.40
2023-12-01T02:00:23.104Z,90.67
2023-12-01T02:02:48.174Z,90.86
2023-12-01T02:05:14.856Z,90.61
2023-12-01T02:07:37.741Z,90.39
2023-12-01T02:10:00.710Z,90.50
2023-12-01T02:12:24.082Z,89.98
2023-12-01T02:14:47.345Z,90.11
2023-12-01T02:17:10.140Z,90.64
2023-12-01T02:19:33.012Z,90.28
2023-12-01T02:21:56.614Z,90.23
2023-12-01T02:24:19.837Z,89.86
2023-12-01T02:26:42.984Z,89.66
2023-12-01T02:29:08.465Z,89.18
2023-12-01T02:31:32.365Z,89.27
2023-12-01T02:33:55.419Z,90.09
2023-12-01T02:36:20.974Z,89.99
2023-12-01T02:38:43.894Z,90.14
2023-12-01T02:41:06.896Z,90.71
2023-12-01T02:43:30.042Z,90.93
2023-12-01T02:45:52.898Z,90.66
2023-12-01T02:48:36.284Z,90.80
2023-12-01T02:50:59.037Z,90.94
2023-12-01T02:53:21.715Z,91.22
2023-12-01T02:55:45.167Z,91.11
2023-12-01T02:58:07.856Z,91.24
2023-12-01T03:00:30.873Z,91.45
2023-12-01T03:02:53.812Z,91.34
2023-12-01T03:05:16.628Z,90.39
2023-12-01T03:07:40.685Z,90.47
2023-12-01T03:10:04.129Z,90.60
2023-12-01T03:12:27.256Z,89.99
2023-12-01T03:15:05.416Z,90.37
2023-12-01T03:17:31.239Z,90.57
2023-12-01T03:19:54.211Z,90.81
2023-12-01T03:22:17.106Z,90.65
2023-12-01T03:24:42.130Z,90.65
2023-12-01T03:27:04.915Z,90.67
2023-12-01T03:29:27.611Z,90.80
2023-12-01T03:31:50.799Z,90.71
2023-12-01T03:34:13.709Z,90.81
2023-12-01T03:36:36.447Z,90.42
2023-12-01T03:38:59.450Z,90.61
2023-12-01T03:41:22.143Z,90.70
2023-12-01T03:43:44.771Z,90.18
2023-12-01T03:46:07.740Z,90.51
2023-12-01T03:48:30.821Z,90.47
2023-12-01T03:50:53.537Z,90.44
2023-12-01T03:53:16.274Z,90.72
2023-12-01T03:55:38.964Z,90.87
2023-12-01T03:58:03.690Z,90.82
2023-12-01T04:00:34.177Z,90.76
2023-12-01T04:02:57.417Z,90.74
2023-12-01T04:05:22.942Z,90.79
2023-12-01T04:07:47.622Z,90.74
2023-12-01T04:10:11.993Z,90.95
2023-12-01T04:12:34.804Z,90.91
2023-12-01T04:14:57.807Z,91.05
2023-12-01T04:17:22.429Z,91.08
2023-12-01T04:19:47.652Z,91.19
2023-12-01T04:22:12.198Z,91.02
2023-12-01T04:24:36.261Z,90.75
2023-12-01T04:26:59.010Z,90.77
2023-12-01T04:29:21.726Z,90.71
2023-12-01T04:31:51.186Z,90.92
2023-12-01T04:34:22.328Z,90.69
2023-12-01T04:36:45.214Z,90.71
2023-12-01T04:39:15.350Z,90.59
2023-12-01T04:41:38.068Z,90.48
2023-12-01T04:44:00.749Z,90.19
2023-12-01T04:46:23.449Z,90.15
2023-12-01T04:48:46.138Z,90.54
2023-12-01T04:51:08.962Z,90.80
2023-12-01T04:53:31.639Z,91.10
2023-12-01T04:55:54.307Z,91.10
2023-12-01T04:58:17.238Z,91.19
2023-12-01T05:00:40.118Z,91.16
2023-12-01T05:03:07.155Z,91.56
2023-12-01T05:05:38.011Z,91.86
2023-12-01T05:08:02.494Z,91.94
2023-12-01T05:10:29.593Z,92.01
2023-12-01T05:12:57.645Z,92.28
2023-12-01T05:15:25.986Z,92.50
2023-12-01T05:18:00.199Z,92.06
2023-12-01T05:20:26.340Z,92.02
2023-12-01T05:22:50.930Z,91.71
2023-12-01T05:25:15.393Z,91.49
2023-12-01T05:27:38.178Z,91.47
2023-12-01T05:30:00.870Z,91.53
2023-12-01T05:32:23.700Z,91.78
2023-12-01T05:34:46.535Z,92.00
2023-12-01T05:37:09.316Z,91.67
2023-12-01T05:39:34.887Z,91.80
2023-12-01T05:41:57.615Z,91.45
2023-12-01T05:44:20.417Z,91.30
2023-12-01T05:46:43.324Z,91.48
2023-12-01T05:49:06.160Z,91.48
2023-12-01T05:51:29.221Z,91.49
2023-12-01T05:53:54.796Z,91.70
2023-12-01T05:56:17.517Z,91.95
2023-12-01T05:58:40.202Z,91.52
2023-12-01T06:01:04.591Z,91.18
2023-12-01T06:03:27.349Z,91.31
2023-12-01T06:05:50.210Z,91.02
2023-12-01T06:08:13.285Z,90.44
2023-12-01T06:10:36.673Z,90.53
2023-12-01T06:13:00.132Z,90.78
2023-12-01T06:15:25.395Z,90.83
2023-12-01T06:17:51.104Z,90.96
2023-12-01T06:20:18.852Z,91.07
2023-12-01T06:22:42.313Z,91.23
2023-12-01T06:25:05.570Z,91.25
2023-12-01T06:27:28.412Z,91.45
2023-12-01T06:29:52.405Z,91.55
2023-12-01T06:32:15.596Z,91.24
2023-12-01T06:34:38.276Z,91.64
2023-12-01T06:37:00.997Z,91.39
2023-12-01T06:39:23.821Z,91.26
2023-12-01T06:41:47.596Z,91.07
2023-12-01T06:44:11.177Z,90.74
2023-12-01T06:46:34.219Z,90.71
2023-12-01T06:48:57.083Z,91.14
2023-12-01T06:51:19.842Z,91.01
2023-12-01T06:53:42.656Z,90.37
2023-12-01T06:56:06.102Z,89.94
2023-12-01T06:58:29.107Z,90.10
2023-12-01T07:00:57.647Z,90.85
2023-12-01T07:03:20.472Z,90.93
2023-12-01T07:05:45.608Z,90.62
2023-12-01T07:08:16.816Z,90.72
2023-12-01T07:10:40.538Z,90.82
2023-12-01T07:13:06.941Z,91.11
2023-12-01T07:15:31.219Z,91.09
2023-12-01T07:17:57.597Z,90.61
2023-12-01T07:20:22.028Z,90.26
2023-12-01T07:22:48.817Z,90.20
2023-12-01T07:25:12.159Z,90.29
2023-12-01T07:27:35.702Z,90.35
2023-12-01T07:30:00.262Z,90.26
2023-12-01T07:32:24.095Z,90.45
2023-12-01T07:34:47.167Z,89.37
2023-12-01T07:37:11.818Z,89.67
2023-12-01T07:39:37.014Z,90.31
2023-12-01T07:41:59.966Z,90.17
2023-12-01T07:44:24.235Z,90.62
2023-12-01T07:46:47.890Z,90.46
2023-12-01T07:49:13.117Z,90.17
2023-12-01T07:51:37.549Z,90.46
2023-12-01T07:54:00.410Z,90.79
2023-12-01T07:56:23.221Z,90.10
2023-12-01T07:58:46.040Z,90.16
2023-12-01T08:01:09.329Z,90.26
2023-12-01T08:03:32.616Z,90.46
2023-12-01T08:05:56.111Z,90.22
2023-12-01T08:08:19.058Z,90.31
2023-12-01T08:10:42.355Z,90.27
2023-12-01T08:13:05.170Z,90.34
2023-12-01T08:15:29.595Z,90.34
2023-12-01T08:17:53.449Z,90.31
2023-12-01T08:20:17.525Z,90.29
2023-12-01T08:22:40.911Z,90.50
2023-12-01T08:25:04.291Z,90.99
2023-12-01T08:27:27.483Z,91.41
2023-12-01T08:29:51.699Z,91.18
2023-12-01T08:32:14.733Z,90.83
2023-12-01T08:34:37.911Z,91.14
2023-12-01T08:37:00.670Z,90.84
2023-12-01T08:39:23.366Z,90.39
2023-12-01T08:41:46.100Z,90.61
2023-12-01T08:44:08.882Z,90.46
2023-12-01T08:46:31.776Z,91.19
2023-12-01T08:48:57.689Z,91.23
2023-12-01T08:51:20.533Z,91.19
2023-12-01T08:53:43.468Z,91.07
2023-12-01T08:56:07.026Z,90.94
2023-12-01T08:58:30.083Z,90.90
2023-12-01T09:00:52.980Z,91.25
2023-12-01T09:03:15.766Z,90.99
2023-12-01T09:05:39.217Z,91.11
2023-12-01T09:08:06.645Z,91.16
2023-12-01T09:10:30.093Z,91.25
2023-12-01T09:12:53.491Z,91.55
2023-12-01T09:15:16.712Z,91.00
2023-12-01T09:17:40.010Z,91.29
2023-12-01T09:20:04.071Z,91.33
2023-12-01T09:22:26.985Z,91.14
2023-12-01T09:24:49.915Z,91.74
2023-12-01T09:27:13.033Z,91.61
2023-12-01T09:29:35.916Z,90.97
2023-12-01T09:32:00.277Z,91.07
2023-12-01T09:34:23.803Z,91.50
2023-12-01T09:36:46.651Z,90.99
2023-12-01T09:39:09.666Z,90.96
2023-12-01T09:41:36.726Z,91.51
2023-12-01T09:44:07.423Z,91.40
2023-12-01T09:46:37.276Z,91.55
2023-12-01T09:49:01.051Z,91.41
2023-12-01T09:51:24.149Z,91.58
2023-12-01T09:53:48.474Z,91.93
2023-12-01T09:56:17.935Z,91.63
2023-12-01T09:59:13.568Z,91.67
2023-12-01T10:01:56.425Z,91.92
2023-12-01T10:04:48.895Z,91.71
2023-12-01T10:07:13.649Z,91.73
2023-12-01T10:09:37.459Z,91.99
2023-12-01T10:12:14.803Z,91.68
2023-12-01T10:14:44.325Z,92.08
2023-12-01T10:17:08.696Z,91.96
2023-12-01T10:19:35.529Z,92.22
2023-12-01T10:21:58.181Z,92.46
2023-12-01T10:24:25.597Z,92.16
2023-12-01T10:26:51.632Z,92.19
2023-12-01T10:29:32.779Z,92.29
2023-12-01T10:31:57.825Z,91.90
2023-12-01T10:34:20.775Z,92.35
2023-12-01T10:36:43.907Z,92.56
2023-12-01T10:39:08.943Z,92.49
2023-12-01T10:41:32.079Z,92.59
2023-12-01T10:43:55.304Z,92.76
2023-12-01T10:46:20.055Z,92.54
2023-12-01T10:48:43.846Z,92.12
2023-12-01T10:51:07.743Z,92.23
2023-12-01T10:53:30.964Z,92.42
2023-12-01T10:55:56.086Z,92.53
2023-12-01T10:58:23.984Z,92.48
2023-12-01T11:00:47.153Z,92.67
2023-12-01T11:03:11.054Z,92.69
2023-12-01T11:05:36.262Z,92.60
2023-12-01T11:08:22.071Z,92.91
2023-12-01T11:11:17.875Z,92.94
2023-12-01T11:14:11.477Z,92.94
2023-12-01T11:16:34.790Z,93.24
2023-12-01T11:18:57.849Z,93.02
2023-12-01T11:21:20.670Z,92.92
2023-12-01T11:23:44.032Z,92.20
2023-12-01T11:26:11.837Z,92.52
2023-12-01T11:28:41.647Z,92.91
2023-12-01T11:31:09.570Z,93.12
2023-12-01T11:33:34.156Z,92.32
2023-12-01T11:36:26.710Z,92.37
2023-12-01T11:39:15.749Z,92.34
2023-12-01T11:41:50.473Z,92.51
2023-12-01T11:44:18.657Z,92.30
2023-12-01T11:46:41.808Z,92.68
2023-12-01T11:49:05.663Z,93.07
2023-12-01T11:51:28.581Z,93.25
2023-12-01T11:54:02.387Z,92.54
2023-12-01T11:56:34.767Z,92.43
2023-12-01T11:58:57.780Z,92.39
2023-12-01T12:01:21.160Z,92.35
2023-12-01T12:03:43.914Z,92.31
2023-12-01T12:06:08.854Z,92.47
2023-12-01T12:08:34.715Z,92.30
2023-12-01T12:10:57.410Z,92.61
2023-12-01T12:13:22.884Z,93.06
2023-12-01T12:15:45.830Z,93.03
2023-12-01T12:18:11.526Z,92.72
2023-12-01T12:20:37.838Z,92.85
2023-12-01T12:23:00.784Z,92.89
2023-12-01T12:25:24.015Z,93.24
2023-12-01T12:27:47.278Z,93.40
2023-12-01T12:30:17.063Z,93.15
2023-12-01T12:32:40.160Z,92.64
2023-12-01T12:35:02.967Z,92.28
2023-12-01T12:37:26.249Z,91.84
2023-12-01T12:39:51.426Z,92.13
2023-12-01T12:42:18.984Z,92.41
2023-12-01T12:44:45.298Z,92.44
2023-12-01T12:47:08.104Z,92.12
2023-12-01T12:49:34.521Z,92.10
2023-12-01T12:52:00.064Z,92.67
2023-12-01T12:54:23.912Z,92.66
2023-12-01T12:56:49.474Z,92.23
2023-12-01T12:59:12.119Z,92.11
2023-12-01T13:01:35.769Z,92.67
2023-12-01T13:03:58.887Z,93.11
2023-12-01T13:06:22.420Z,92.41
2023-12-01T13:08:46.569Z,92.12
2023-12-01T13:11:11.475Z,92.75
2023-12-01T13:13:35.524Z,92.31
2023-12-01T13:16:01.727Z,92.23
2023-12-01T13:18:25.186Z,92.30
2023-12-01T13:20:49.006Z,92.34
2023-12-01T13:23:12.202Z,92.53
2023-12-01T13:25:34.968Z,92.53
2023-12-01T13:27:57.592Z,92.70
2023-12-01T13:30:20.666Z,92.56
2023-12-01T13:32:44.045Z,92.57
2023-12-01T13:35:08.245Z,92.55
2023-12-01T13:37:30.990Z,92.73
2023-12-01T13:39:55.044Z,92.57
2023-12-01T13:42:18.628Z,92.39
2023-12-01T13:44:41.812Z,92.55
2023-12-01T13:47:04.802Z,92.48
2023-12-01T13:49:27.494Z,92.14
2023-12-01T13:51:50.235Z,92.00
2023-12-01T13:54:14.774Z,91.79
2023-12-01T13:56:37.786Z,91.77
2023-12-01T13:59:00.406Z,92.11
2023-12-01T14:01:23.786Z,92.24
2023-12-01T14:03:46.802Z,92.31
2023-12-01T14:06:14.790Z,91.80
2023-12-01T14:08:37.644Z,91.84
2023-12-01T14:11:00.379Z,91.84
2023-12-01T14:13:23.048Z,92.06
2023-12-01T14:15:45.915Z,92.71
2023-12-01T14:18:11.270Z,92.93
2023-12-01T14:20:34.960Z,92.36
2023-12-01T14:22:57.734Z,92.53
2023-12-01T14:25:20.471Z,92.80
2023-12-01T14:27:43.624Z,92.72
2023-12-01T14:30:09.296Z,92.58
2023-12-01T14:32:34.157Z,92.86
2023-12-01T14:34:56.844Z,92.67
2023-12-01T14:37:20.321Z,92.59
2023-12-01T14:39:43.022Z,92.63
2023-12-01T14:42:12.661Z,92.79
2023-12-01T14:44:36.376Z,92.62
2023-12-01T14:46:59.054Z,92.26
2023-12-01T14:49:21.764Z,92.55
2023-12-01T14:51:44.385Z,92.63
2023-12-01T14:54:10.497Z,92.52
2023-12-01T14:56:35.470Z,92.48
2023-12-01T14:58:58.204Z,92.62
2023-12-01T15:01:21.046Z,92.73
2023-12-01T15:03:46.296Z,92.73
2023-12-01T15:06:15.328Z,92.57
2023-12-01T15:08:38.428Z,92.38
2023-12-01T15:11:01.142Z,92.13
2023-12-01T15:13:24.708Z,92.41
2023-12-01T15:15:47.609Z,92.48
2023-12-01T15:18:12.475Z,92.49
2023-12-01T15:20:35.825Z,92.71
2023-12-01T15:22:58.460Z,92.60
2023-12-01T15:25:21.238Z,92.49
2023-12-01T15:27:44.582Z,91.95
2023-12-01T15:30:13.376Z,91.80
2023-12-01T15:32:37.012Z,91.71
2023-12-01T15:34:59.734Z,91.88
2023-12-01T15:37:25.561Z,92.43
2023-12-01T15:39:48.374Z,92.09
2023-12-01T15:42:11.940Z,92.41
2023-12-01T15:44:35.987Z,92.43
2023-12-01T15:46:58.716Z,92.54
2023-12-01T15:49:22.066Z,92.28
2023-12-01T15:51:45.065Z,92.13
2023-12-01T15:54:09.577Z,92.21
2023-12-01T15:56:33.697Z,92.24
2023-12-01T15:58:58.039Z,92.08
2023-12-01T16:01:20.856Z,91.91
2023-12-01T16:03:44.608Z,92.00
2023-12-01T16:06:10.878Z,91.87
2023-12-01T16:08:34.385Z,92.13
2023-12-01T16:10:57.164Z,92.05
2023-12-01T16:13:19.879Z,92.07
2023-12-01T16:15:43.056Z,92.10
2023-12-01T16:18:10.695Z,91.99
2023-12-01T16:20:35.929Z,91.98
2023-12-01T16:22:58.672Z,91.98
2023-12-01T16:25:21.336Z,91.93
2023-12-01T16:27:44.101Z,92.03
2023-12-01T16:30:13.613Z,92.21
2023-12-01T16:32:36.672Z,92.26
2023-12-01T16:34:59.290Z,92.27
2023-12-01T16:37:22.002Z,92.16
2023-12-01T16:39:44.782Z,92.49
2023-12-01T16:42:15.289Z,92.41
2023-12-01T16:44:38.176Z,92.55
2023-12-01T16:47:00.922Z,92.13
2023-12-01T16:49:23.735Z,92.02
2023-12-01T16:51:46.661Z,92.05
2023-12-01T16:54:12.463Z,92.26
2023-12-01T16:56:36.671Z,92.05
2023-12-01T16:58:59.347Z,91.87
2023-12-01T17:01:21.990Z,91.97
2023-12-01T17:03:44.836Z,92.05
2023-12-01T17:06:14.595Z,92.26
2023-12-01T17:08:37.484Z,92.59
2023-12-01T17:11:00.083Z,92.83
2023-12-01T17:13:23.105Z,92.69
2023-12-01T17:15:45.883Z,91.85
2023-12-01T17:18:11.816Z,91.63
2023-12-01T17:20:37.525Z,91.69
2023-12-01T17:23:00.346Z,91.56
2023-12-01T17:25:23.035Z,91.47
2023-12-01T17:27:46.303Z,91.55
2023-12-01T17:30:12.804Z,91.30
2023-12-01T17:32:36.368Z,91.32
2023-12-01T17:34:59.239Z,91.23
2023-12-01T17:37:21.914Z,91.38
2023-12-01T17:39:44.767Z,91.78
2023-12-01T17:42:15.684Z,91.95
2023-12-01T17:44:39.118Z,91.83
2023-12-01T17:47:01.763Z,91.93
2023-12-01T17:49:27.523Z,91.91
2023-12-01T17:51:50.674Z,92.23
2023-12-01T17:54:17.076Z,92.29
2023-12-01T17:56:40.015Z,92.22
2023-12-01T17:59:02.797Z,92.45
2023-12-01T18:01:26.166Z,92.23
2023-12-01T18:03:49.056Z,92.58
2023-12-01T18:06:15.805Z,92.20
2023-12-01T18:08:40.809Z,92.09
2023-12-01T18:11:03.608Z,92.05
2023-12-01T18:13:26.233Z,92.14
2023-12-01T18:15:48.990Z,92.33
2023-12-01T18:18:15.164Z,92.32
2023-12-01T18:20:38.193Z,92.15
2023-12-01T18:25:42.930Z,92.47
2023-12-01T18:28:05.676Z,92.49
2023-12-01T18:30:28.474Z,92.28
2023-12-01T18:32:51.311Z,92.09
2023-12-01T18:35:14.790Z,92.19
2023-12-01T18:37:37.418Z,91.86
2023-12-01T18:40:00.168Z,92.26
2023-12-01T18:42:23.337Z,92.22
2023-12-01T18:44:45.942Z,91.46
2023-12-01T18:47:08.621Z,91.81
2023-12-01T18:49:32.349Z,92.17
2023-12-01T18:51:55.044Z,92.24
2023-12-01T18:54:18.099Z,91.97
2023-12-01T18:56:42.695Z,92.11
2023-12-01T18:59:05.369Z,92.24
2023-12-01T19:01:28.193Z,92.35
2023-12-01T19:03:51.381Z,92.00
2023-12-01T19:06:14.853Z,91.89
2023-12-01T19:08:37.962Z,91.86
2023-12-01T19:11:00.689Z,91.98
2023-12-01T19:13:23.353Z,92.27
2023-12-01T19:15:46.127Z,92.29
2023-12-01T19:18:15.009Z,92.37
2023-12-01T19:20:37.935Z,92.36
2023-12-01T19:23:00.667Z,92.36
2023-12-01T19:25:23.333Z,92.51
2023-12-01T19:27:46.138Z,92.64
2023-12-01T19:30:13.418Z,92.56
2023-12-01T19:32:38.614Z,92.38
2023-12-01T19:35:01.286Z,92.59
2023-12-01T19:37:24.061Z,92.56
2023-12-01T19:39:46.744Z,92.29
2023-12-01T19:42:12.323Z,92.23
2023-12-01T19:44:36.650Z,92.41
2023-12-01T19:46:59.314Z,92.33
2023-12-01T19:49:22.219Z,92.34
2023-12-01T19:51:44.946Z,92.32
2023-12-01T19:54:11.609Z,92.26
2023-12-01T19:56:35.396Z,92.44
2023-12-01T19:58:58.265Z,92.67
2023-12-01T20:01:20.995Z,92.76
2023-12-01T20:03:43.603Z,92.87
2023-12-01T20:06:13.349Z,92.85
2023-12-01T20:08:36.482Z,92.73
2023-12-01T20:10:59.207Z,92.92
2023-12-01T20:13:21.818Z,92.74
2023-12-01T20:15:44.602Z,92.85
2023-12-01T20:18:07.807Z,92.96
2023-12-01T20:20:31.094Z,92.96
2023-12-01T20:22:53.790Z,92.92
2023-12-01T20:25:16.594Z,92.78
2023-12-01T20:27:39.509Z,92.78
2023-12-01T20:30:03.152Z,92.82
2023-12-01T20:32:28.983Z,92.91
2023-12-01T20:34:51.872Z,92.75
2023-12-01T20:37:14.510Z,92.75
2023-12-01T20:39:37.385Z,92.56
2023-12-01T20:42:02.007Z,92.62
2023-12-01T20:44:26.324Z,92.70
2023-12-01T20:46:49.329Z,92.91
2023-12-01T20:49:12.321Z,93.08
2023-12-01T20:51:35.166Z,93.21
2023-12-01T20:53:57.831Z,93.36
2023-12-01T20:56:20.649Z,93.44
2023-12-01T20:58:43.363Z,93.46
2023-12-01T21:01:06.402Z,93.43
2023-12-01T21:03:29.181Z,93.63
2023-12-01T21:05:52.108Z,93.66
2023-12-01T21:08:14.800Z,93.74
2023-12-01T21:10:37.682Z,93.75
2023-12-01T21:13:00.347Z,93.88
2023-12-01T21:15:23.089Z,93.72
2023-12-01T21:17:46.251Z,93.67
2023-12-01T21:20:09.260Z,93.50
2023-12-01T21:22:32.173Z,93.44
2023-12-01T21:24:54.807Z,93.45
2023-12-01T21:27:19.189Z,93.50
2023-12-01T21:29:42.060Z,93.57
2023-12-01T21:32:04.911Z,93.37
2023-12-01T21:34:27.826Z,93.46
2023-12-01T21:36:50.531Z,93.67
2023-12-01T21:39:16.805Z,93.64
2023-12-01T21:41:39.512Z,93.99
2023-12-01T21:44:02.168Z,93.99
2023-12-01T21:46:25.046Z,93.98
2023-12-01T21:48:47.851Z,94.17
2023-12-01T21:51:10.612Z,94.28
2023-12-01T21:53:33.265Z,94.11
2023-12-01T21:55:56.509Z,93.98
2023-12-01T21:58:19.173Z,94.24
2023-12-01T22:00:41.846Z,94.34
2023-12-01T22:03:04.695Z,94.37
2023-12-01T22:05:27.825Z,94.48
2023-12-01T22:07:50.639Z,94.54
2023-12-01T22:10:13.364Z,94.63
2023-12-01T22:12:36.470Z,94.78
2023-12-01T22:14:59.222Z,94.88
2023-12-01T22:17:22.262Z,95.12
2023-12-01T22:19:46.102Z,95.40
2023-12-01T22:22:18.720Z,95.47
2023-12-01T22:24:42.675Z,95.51
2023-12-01T22:27:06.309Z,95.47
2023-12-01T22:29:29.028Z,95.52
2023-12-01T22:31:51.855Z,95.42
2023-12-01T22:34:16.029Z,95.21
2023-12-01T22:36:38.780Z,95.07
2023-12-01T22:39:01.545Z,94.82
2023-12-01T22:41:24.145Z,94.81
2023-12-01T22:43:46.812Z,94.92
2023-12-01T22:46:10.091Z,95.07
2023-12-01T22:48:32.926Z,95.00
2023-12-01T22:50:55.664Z,95.15
2023-12-01T22:53:18.297Z,95.07
2023-12-01T22:55:41.366Z,94.95
2023-12-01T22:58:03.950Z,95.06
2023-12-01T23:00:32.238Z,94.82
2023-12-01T23:02:59.931Z,94.92
2023-12-01T23:05:23.688Z,95.14
2023-12-01T23:07:46.386Z,95.20
2023-12-01T23:10:09.167Z,95.21
2023-12-01T23:12:31.791Z,95.39
2023-12-01T23:14:54.656Z,95.58
2023-12-01T23:17:17.498Z,95.74
2023-12-01T23:19:41.576Z,95.89
2023-12-01T23:22:04.533Z,96.03
2023-12-01T23:24:27.231Z,96.17
2023-12-01T23:26:49.849Z,96.19
2023-12-01T23:29:13.097Z,96.09
2023-12-01T23:31:35.865Z,96.19
2023-12-01T23:33:58.747Z,96.27
2023-12-01T23:36:21.921Z,96.51
2023-12-01T23:38:44.842Z,96.12
2023-12-01T23:41:07.963Z,96.02
2023-12-01T23:43:30.815Z,96.08
2023-12-01T23:45:53.641Z,96.16
2023-12-01T23:48:16.780Z,96.23
2023-12-01T23:50:39.873Z,96.40
2023-12-01T23:53:02.505Z,96.51
2023-12-01T23:55:25.730Z,96.56
2023-12-01T23:57:48.398Z,96.56
